sensor_id;sensor_type;location;lat;lon;timestamp;temperature;humidity
21883;DHT22;11106;47.864;13.054;2023-02-15T19:58:25;8.80;99.90
21883;DHT22;11106;47.864;13.054;2023-02-15T20:03:25;0.40;99.90
21883;DHT22;11106;47.864;13.054;2023-02-15T20:08:28;0.20;99.90
21883;DHT22;11106;47.864;13.054;2023-02-15T20:13:29;0.10;99.90
21883;DHT22;11106;47.864;13.054;2023-02-15T20:18:30;0.10;99.90
21883;DHT22;11106;47.864;13.054;2023-02-15T20:23:34;0.00;99.90
21883;DHT22;11106;47.864;13.054;2023-02-15T20:28:35;0.00;99.90
21883;DHT22;11106;47.864;13.054;2023-02-15T20:33:35;-0.10;99.90
21883;DHT22;11106;47.864;13.054;2023-02-15T20:38:36;-0.10;99.90
21883;DHT22;11106;47.864;13.054;2023-02-15T20:43:37;-0.20;99.90
21883;DHT22;11106;47.864;13.054;2023-02-15T20:48:37;-0.40;99.90
21883;DHT22;11106;47.864;13.054;2023-02-15T20:53:38;-0.40;99.90
21883;DHT22;11106;47.864;13.054;2023-02-15T20:58:39;-0.40;99.90
21883;DHT22;11106;47.864;13.054;2023-02-15T21:03:41;-0.40;99.90
21883;DHT22;11106;47.864;13.054;2023-02-15T21:08:42;-0.40;99.90
21883;DHT22;11106;47.864;13.054;2023-02-15T21:13:43;-0.40;99.90
21883;DHT22;11106;47.864;13.054;2023-02-15T21:18:43;-0.40;99.90
21883;DHT22;11106;47.864;13.054;2023-02-15T21:23:45;-0.30;99.90
21883;DHT22;11106;47.864;13.054;2023-02-15T21:28:47;-0.30;99.90
21883;DHT22;11106;47.864;13.054;2023-02-15T21:33:48;-0.40;99.90
21883;DHT22;11106;47.864;13.054;2023-02-15T21:38:49;-0.40;99.90
21883;DHT22;11106;47.864;13.054;2023-02-15T21:43:50;-0.30;99.90
21883;DHT22;11106;47.864;13.054;2023-02-15T21:49:09;-0.30;99.90
21883;DHT22;11106;47.864;13.054;2023-02-15T21:54:15;-0.30;99.90
21883;DHT22;11106;47.864;13.054;2023-02-15T21:59:17;-0.30;99.90
21883;DHT22;11106;47.864;13.054;2023-02-15T22:04:28;-0.20;99.90
21883;DHT22;11106;47.864;13.054;2023-02-15T22:09:30;-0.20;99.90
21883;DHT22;11106;47.864;13.054;2023-02-15T22:14:34;-0.20;99.90
21883;DHT22;11106;47.864;13.054;2023-02-15T22:19:36;-0.30;99.90
21883;DHT22;11106;47.864;13.054;2023-02-15T22:24:37;-0.40;99.90
21883;DHT22;11106;47.864;13.054;2023-02-15T22:29:38;-0.40;99.90
21883;DHT22;11106;47.864;13.054;2023-02-15T22:34:39;-0.50;99.90
21883;DHT22;11106;47.864;13.054;2023-02-15T22:39:40;-0.60;99.90
21883;DHT22;11106;47.864;13.054;2023-02-15T22:44:40;-0.70;99.90
21883;DHT22;11106;47.864;13.054;2023-02-15T22:49:41;-0.80;99.90
21883;DHT22;11106;47.864;13.054;2023-02-15T22:54:42;-0.80;99.90
21883;DHT22;11106;47.864;13.054;2023-02-15T22:59:43;-0.80;99.90
21883;DHT22;11106;47.864;13.054;2023-02-15T23:04:43;-0.80;99.90
21883;DHT22;11106;47.864;13.054;2023-02-15T23:09:44;-0.90;99.90
21883;DHT22;11106;47.864;13.054;2023-02-15T23:14:45;-0.90;99.90
21883;DHT22;11106;47.864;13.054;2023-02-15T23:19:46;-1.00;99.90
21883;DHT22;11106;47.864;13.054;2023-02-15T23:24:50;-1.00;99.90
21883;DHT22;11106;47.864;13.054;2023-02-15T23:29:51;-1.10;99.90
21883;DHT22;11106;47.864;13.054;2023-02-15T23:34:52;-1.10;99.90
21883;DHT22;11106;47.864;13.054;2023-02-15T23:39:53;-1.20;99.90
21883;DHT22;11106;47.864;13.054;2023-02-15T23:45:22;-1.20;99.90
21883;DHT22;11106;47.864;13.054;2023-02-15T23:50:27;-1.30;99.90
21883;DHT22;11106;47.864;13.054;2023-02-15T23:55:38;-1.30;99.90
